Time;durP1;ratioP1;P1;durP2;ratioP2;P2;SDS_P1;SDS_P2;PMS_P1;PMS_P2;Temp;Humidity;BMP_temperature;BMP_pressure;BME280_temperature;BME280_humidity;BME280_pressure;Samples;Min_cycle;Max_cycle;Signal;HPM_P1;HPM_P2
2021/09/06 00:01:00;;;;;;;5.32;3.15;;;;;;;8.50;78.57;100202.75;5112699;28;20051;-61
2021/09/06 00:03:45;;;;;;;4.40;2.47;;;;;;;8.56;78.31;100200.97;5119946;28;20107;-62
2021/09/06 00:06:34;;;;;;;6.00;2.70;;;;;;;8.50;77.68;100201.00;5119019;28;20041;-62
2021/09/06 00:09:19;;;;;;;3.70;2.63;;;;;;;8.52;77.20;100194.09;5119789;28;20271;-62
2021/09/06 00:12:05;;;;;;;3.80;2.90;;;;;;;8.53;77.69;100194.97;5105566;28;20084;-62
2021/09/06 00:14:51;;;;;;;6.80;2.90;;;;;;;8.50;77.09;100203.59;5118882;28;20027;-61
2021/09/06 00:17:37;;;;;;;3.97;3.00;;;;;;;8.54;77.08;100209.59;5118643;28;20077;-61
2021/09/06 00:20:23;;;;;;;5.80;2.60;;;;;;;8.28;77.16;100164.94;5118838;28;20024;-62
2021/09/06 00:23:10;;;;;;;4.97;2.58;;;;;;;8.51;77.15;100199.28;5119787;28;20028;-62
2021/09/06 00:25:56;;;;;;;3.80;2.45;;;;;;;8.24;77.30;100152.06;5119863;28;20189;-62
2021/09/06 00:28:42;;;;;;;4.85;2.72;;;;;;;8.48;75.92;100200.16;5119900;28;20032;-61
2021/09/06 00:31:28;;;;;;;3.53;2.60;;;;;;;8.53;75.73;100200.13;5119128;28;20028;-62
2021/09/06 00:34:14;;;;;;;2.80;2.22;;;;;;;8.55;77.67;100203.56;5120576;28;20027;-62
2021/09/06 00:37:00;;;;;;;3.70;2.25;;;;;;;8.58;77.09;100199.25;5120231;28;20031;-62
2021/09/06 00:39:46;;;;;;;4.60;2.63;;;;;;;8.54;76.05;100201.88;5117178;28;20244;-62
2021/09/06 00:42:31;;;;;;;4.03;2.47;;;;;;;8.52;75.89;100195.84;5118872;28;20343;-60
2021/09/06 00:45:17;;;;;;;2.95;2.00;;;;;;;8.55;75.58;100200.97;5119782;28;20031;-62
2021/09/06 00:48:05;;;;;;;7.18;2.65;;;;;;;8.56;76.08;100198.38;5119940;28;20095;-61
2021/09/06 00:50:53;;;;;;;3.53;2.30;;;;;;;8.56;76.24;100205.28;5119150;28;20035;-61
2021/09/06 00:53:39;;;;;;;2.53;2.22;;;;;;;8.53;76.18;100200.13;5104884;28;20221;-60
2021/09/06 00:56:25;;;;;;;3.85;2.53;;;;;;;8.51;77.20;100204.44;5119530;28;20609;-61
2021/09/06 00:59:10;;;;;;;5.95;2.30;;;;;;;8.52;76.36;100193.25;5113641;28;20081;-61
2021/09/06 01:01:56;;;;;;;4.57;2.50;;;;;;;8.55;77.86;100200.97;5119331;28;20275;-61
2021/09/06 01:04:42;;;;;;;2.95;2.30;;;;;;;8.57;77.43;100199.25;5103793;28;20335;-61
2021/09/06 01:07:28;;;;;;;3.22;1.90;;;;;;;8.55;76.73;100203.56;5120014;28;20027;-61
2021/09/06 01:10:15;;;;;;;3.90;2.45;;;;;;;8.50;75.99;100197.56;5103093;28;20047;-61
2021/09/06 01:13:10;;;;;;;2.90;2.00;;;;;;;8.50;76.23;100201.00;5107203;28;20114;-61
2021/09/06 01:15:55;;;;;;;3.58;2.00;;;;;;;8.53;76.85;100208.72;5120429;28;20024;-60
2021/09/06 01:18:42;;;;;;;2.95;2.35;;;;;;;8.55;77.15;100201.84;5117697;28;20023;-60
2021/09/06 01:21:27;;;;;;;3.47;2.22;;;;;;;8.53;76.24;100202.72;5117965;28;20083;-61
2021/09/06 01:24:18;;;;;;;4.28;2.03;;;;;;;8.15;76.94;100149.50;5120040;28;20080;-61
2021/09/06 01:27:04;;;;;;;3.10;2.00;;;;;;;8.51;76.53;100201.84;5120083;28;20273;-61
2021/09/06 01:29:52;;;;;;;2.75;2.22;;;;;;;8.53;76.52;100216.47;5122053;28;20144;-61
2021/09/06 01:32:38;;;;;;;4.93;2.63;;;;;;;8.48;76.49;100207.91;5123025;28;20039;-61
2021/09/06 01:35:24;;;;;;;3.70;2.20;;;;;;;8.48;77.39;100212.19;5119813;28;20031;-60
2021/09/06 01:38:10;;;;;;;3.38;2.20;;;;;;;8.42;76.62;100205.31;5122801;28;20319;-61
2021/09/06 01:40:56;;;;;;;3.78;1.90;;;;;;;8.29;77.39;100212.25;5123607;28;20120;-61
2021/09/06 01:43:42;;;;;;;3.22;2.25;;;;;;;8.36;75.58;100224.25;5121933;28;20339;-61
2021/09/06 01:46:29;;;;;;;3.05;2.10;;;;;;;8.26;76.20;100214.84;5122616;28;20027;-61
2021/09/06 01:49:15;;;;;;;5.32;2.20;;;;;;;8.31;76.22;100218.28;5106339;28;20581;-61
2021/09/06 01:52:01;;;;;;;3.15;2.47;;;;;;;8.22;76.60;100219.16;5123063;28;20189;-61
2021/09/06 01:54:46;;;;;;;2.75;2.08;;;;;;;8.23;76.10;100220.00;5110857;28;20059;-60
2021/09/06 01:57:32;;;;;;;3.50;2.20;;;;;;;8.26;76.50;100217.41;5117697;28;20035;-60
2021/09/06 02:00:20;;;;;;;3.08;2.55;;;;;;;8.08;76.23;100216.63;5118092;28;20347;-60
2021/09/06 02:03:05;;;;;;;3.28;2.03;;;;;;;8.10;76.22;100217.44;5122914;28;20102;-60
2021/09/06 02:05:51;;;;;;;4.65;2.33;;;;;;;8.09;76.68;100215.75;5122526;28;20024;-60
2021/09/06 02:08:37;;;;;;;2.78;2.20;;;;;;;7.98;75.49;100216.63;5106353;28;20051;-61
2021/09/06 02:11:24;;;;;;;5.60;2.35;;;;;;;7.88;76.53;100228.69;5117905;28;20032;-60
2021/09/06 02:14:10;;;;;;;3.20;2.28;;;;;;;7.99;76.67;100228.66;5120026;28;20197;-61
2021/09/06 02:16:56;;;;;;;5.82;2.58;;;;;;;7.85;76.35;100232.16;5120733;28;20087;-60
2021/09/06 02:19:41;;;;;;;4.93;2.97;;;;;;;7.82;76.46;100233.84;5121972;28;20042;-60
2021/09/06 02:22:27;;;;;;;3.70;2.80;;;;;;;7.72;76.10;100236.44;5122387;28;20073;-64
2021/09/06 02:25:13;;;;;;;3.90;2.53;;;;;;;7.82;76.12;100236.44;5120297;28;20051;-61
2021/09/06 02:27:59;;;;;;;4.82;3.15;;;;;;;7.76;76.77;100232.13;5122297;28;20255;-61
2021/09/06 02:30:45;;;;;;;10.00;4.13;;;;;;;7.73;76.39;100237.31;5104936;28;20032;-61
2021/09/06 02:33:31;;;;;;;8.85;3.20;;;;;;;7.65;76.97;100232.13;5122032;28;20328;-62
2021/09/06 02:36:17;;;;;;;5.35;3.13;;;;;;;7.70;75.75;100238.16;5120884;28;20103;-61
2021/09/06 02:39:04;;;;;;;4.38;2.65;;;;;;;7.68;76.61;100239.00;5102930;28;20031;-61
2021/09/06 02:41:51;;;;;;;4.45;2.45;;;;;;;7.67;76.65;100243.31;5104265;28;20028;-61
2021/09/06 02:44:36;;;;;;;4.13;2.60;;;;;;;7.60;75.93;100246.75;5122199;28;20027;-61
2021/09/06 02:47:22;;;;;;;5.20;3.22;;;;;;;7.61;76.33;100248.50;5104191;28;20020;-61
2021/09/06 02:50:08;;;;;;;2.83;2.20;;;;;;;7.55;77.60;100256.19;5121080;28;20362;-61
2021/09/06 02:52:54;;;;;;;3.63;2.55;;;;;;;7.48;77.21;100255.38;5116248;28;20316;-59
2021/09/06 02:55:40;;;;;;;4.45;2.88;;;;;;;7.51;76.67;100257.06;5121633;28;20054;-60
2021/09/06 02:58:26;;;;;;;4.20;2.30;;;;;;;7.53;76.97;100260.50;5120459;28;20031;-61
2021/09/06 03:01:12;;;;;;;3.47;2.40;;;;;;;7.50;76.84;100265.66;5120060;28;20030;-61
2021/09/06 03:03:58;;;;;;;5.72;2.53;;;;;;;7.42;76.74;100263.94;5119820;28;20102;-60
2021/09/06 03:06:44;;;;;;;3.40;2.00;;;;;;;7.54;76.77;100263.09;5121403;28;20046;-60
2021/09/06 03:09:30;;;;;;;3.20;2.13;;;;;;;7.50;76.17;100268.25;5119612;28;20094;-60
2021/09/06 03:12:15;;;;;;;4.35;2.45;;;;;;;7.57;77.47;100273.38;5120908;28;20027;-61
2021/09/06 03:15:02;;;;;;;4.15;2.30;;;;;;;7.56;76.87;100274.25;5119923;28;20023;-61
2021/09/06 03:17:48;;;;;;;5.40;2.50;;;;;;;7.56;76.87;100275.97;5121401;28;20083;-61
2021/09/06 03:20:34;;;;;;;34.40;24.90;;;;;;;7.45;77.10;100262.22;5121506;28;20019;-61
2021/09/06 03:23:20;;;;;;;7.70;3.80;;;;;;;7.55;77.18;100282.84;5119662;28;20342;-61
2021/09/06 03:26:06;;;;;;;4.95;2.45;;;;;;;7.53;76.39;100279.41;5104712;28;20221;-62
2021/09/06 03:28:51;;;;;;;4.72;2.75;;;;;;;7.52;77.10;100280.25;5120570;28;20083;-61
2021/09/06 03:31:37;;;;;;;3.45;2.45;;;;;;;7.55;77.45;100279.41;5119079;28;20032;-61
2021/09/06 03:34:23;;;;;;;3.97;2.70;;;;;;;7.48;77.61;100282.81;5119418;28;20019;-62
2021/09/06 03:37:09;;;;;;;2.35;1.73;;;;;;;7.59;77.04;100288.84;5120479;28;20019;-62
2021/09/06 03:39:55;;;;;;;4.20;2.05;;;;;;;7.55;77.86;100294.88;5111188;28;20084;-62
2021/09/06 03:42:41;;;;;;;5.30;2.50;;;;;;;7.46;77.57;100293.13;5113228;28;20032;-62
2021/09/06 03:45:27;;;;;;;3.72;2.60;;;;;;;7.45;77.96;100282.84;5118746;28;20024;-60
2021/09/06 03:48:12;;;;;;;5.13;2.80;;;;;;;7.56;78.55;100301.75;5120157;28;20262;-61
2021/09/06 03:50:58;;;;;;;3.72;2.40;;;;;;;7.62;78.48;100296.59;5111662;28;20263;-61
2021/09/06 03:53:44;;;;;;;4.38;2.38;;;;;;;7.59;77.71;100300.00;5110341;28;20262;-61
2021/09/06 03:56:30;;;;;;;5.72;2.45;;;;;;;7.64;77.06;100294.88;5095867;28;20024;-61
2021/09/06 03:59:18;;;;;;;4.38;2.63;;;;;;;7.67;76.83;100294.03;5115461;28;20353;-61
2021/09/06 04:02:04;;;;;;;2.83;2.22;;;;;;;7.70;77.27;100296.59;5110608;28;20221;-61
2021/09/06 04:04:50;;;;;;;3.95;2.88;;;;;;;7.71;77.30;100290.56;5111646;28;20023;-61
2021/09/06 04:07:37;;;;;;;8.68;3.22;;;;;;;7.77;77.87;100293.16;5111727;28;20247;-59
2021/09/06 04:10:23;;;;;;;6.28;2.67;;;;;;;7.68;77.54;100285.41;5112511;28;20270;-63
2021/09/06 04:13:09;;;;;;;4.05;2.35;;;;;;;7.85;76.33;100299.19;5111686;28;20031;-60
2021/09/06 04:15:55;;;;;;;3.88;2.72;;;;;;;7.89;76.77;100290.56;5110624;28;20024;-60
2021/09/06 04:18:40;;;;;;;4.35;2.70;;;;;;;7.84;76.35;100287.16;5107520;28;20212;-60
2021/09/06 04:21:26;;;;;;;4.90;2.78;;;;;;;8.00;76.58;100298.31;5111034;28;20039;-61
2021/09/06 04:24:12;;;;;;;4.43;2.42;;;;;;;8.04;76.82;100299.19;5118279;28;20224;-60
2021/09/06 04:26:59;;;;;;;5.60;2.40;;;;;;;8.09;76.40;100306.03;5108298;28;20085;-60
2021/09/06 04:29:45;;;;;;;5.20;2.55;;;;;;;8.10;76.12;100304.31;5109359;28;20092;-60
2021/09/06 04:32:31;;;;;;;6.22;2.75;;;;;;;8.13;75.68;100299.16;5112183;28;20030;-60
2021/09/06 04:35:17;;;;;;;3.85;2.42;;;;;;;8.17;76.83;100294.84;5111619;28;20049;-59
2021/09/06 04:38:02;;;;;;;4.13;2.85;;;;;;;8.24;74.91;100299.13;5111225;28;20027;-60
2021/09/06 04:40:48;;;;;;;7.30;3.05;;;;;;;8.29;75.71;100306.00;5093124;28;20035;-61
2021/09/06 04:43:34;;;;;;;7.70;3.00;;;;;;;8.33;75.39;100300.84;5111554;28;20028;-61
2021/09/06 04:46:20;;;;;;;5.78;2.97;;;;;;;8.34;75.82;100302.53;5119360;28;20019;-62
2021/09/06 04:49:06;;;;;;;7.55;3.22;;;;;;;8.35;75.93;100297.41;5118763;28;20094;-63
2021/09/06 04:51:52;;;;;;;6.90;3.38;;;;;;;8.36;75.94;100295.66;5119187;28;20024;-64
2021/09/06 04:54:38;;;;;;;6.53;3.35;;;;;;;8.38;76.04;100296.50;5117847;28;20062;-62
2021/09/06 04:57:25;;;;;;;4.60;2.85;;;;;;;8.45;74.96;100301.69;5119172;28;20024;-62
2021/09/06 05:00:11;;;;;;;5.00;2.65;;;;;;;8.49;75.32;100296.53;5096760;28;20093;-63
2021/09/06 05:02:57;;;;;;;5.25;2.80;;;;;;;8.26;75.39;100256.13;5122771;28;20016;-62
2021/09/06 05:05:43;;;;;;;3.88;2.40;;;;;;;8.58;74.72;100296.47;5123631;28;20036;-63
2021/09/06 05:08:29;;;;;;;4.38;2.60;;;;;;;8.63;74.33;100299.91;5123204;28;20016;-63
2021/09/06 05:11:15;;;;;;;9.27;2.58;;;;;;;8.61;74.34;100291.34;5121383;28;20024;-62
2021/09/06 05:14:00;;;;;;;4.63;2.72;;;;;;;8.68;73.86;100298.19;5123876;28;20059;-62
2021/09/06 05:16:46;;;;;;;6.15;4.43;;;;;;;8.77;73.93;100302.44;5120756;28;20350;-63
2021/09/06 05:19:32;;;;;;;4.25;2.50;;;;;;;8.76;74.66;100305.88;5122682;28;20023;-63
2021/09/06 05:22:18;;;;;;;5.13;2.78;;;;;;;8.75;73.95;100294.72;5122061;28;20038;-64
2021/09/06 05:25:04;;;;;;;4.05;2.72;;;;;;;8.87;73.55;100304.13;5123562;28;20032;-63
2021/09/06 05:27:50;;;;;;;5.72;3.00;;;;;;;8.88;72.90;100292.06;5122859;28;20023;-63
2021/09/06 05:30:36;;;;;;;3.17;2.58;;;;;;;8.96;73.03;100300.63;5123046;28;20331;-63
2021/09/06 05:33:22;;;;;;;3.00;2.50;;;;;;;9.09;71.99;100307.47;5122934;28;20209;-63
2021/09/06 05:36:10;;;;;;;7.25;2.83;;;;;;;9.04;72.79;100308.38;5122546;28;20027;-63
2021/09/06 05:38:56;;;;;;;3.97;3.00;;;;;;;9.16;72.38;100321.19;5122428;28;20032;-63
2021/09/06 05:41:44;;;;;;;5.00;2.33;;;;;;;9.21;71.50;100321.19;5101034;28;20031;-63
2021/09/06 05:44:30;;;;;;;4.35;2.67;;;;;;;9.26;71.87;100316.84;5099800;28;20098;-64
2021/09/06 05:47:17;;;;;;;4.18;3.00;;;;;;;9.35;72.78;100321.97;5102323;28;20074;-64
2021/09/06 05:50:03;;;;;;;6.18;2.97;;;;;;;9.31;70.70;100310.78;5101930;28;20093;-63
2021/09/06 05:52:49;;;;;;;7.45;3.08;;;;;;;9.38;70.83;100321.94;5101153;28;20340;-63
2021/09/06 05:55:35;;;;;;;5.32;2.85;;;;;;;9.49;70.82;100327.91;5100740;28;20024;-64
2021/09/06 05:58:20;;;;;;;4.88;2.53;;;;;;;9.58;69.97;100328.72;5102334;28;20217;-64
2021/09/06 06:01:06;;;;;;;5.53;3.47;;;;;;;9.62;70.27;100325.22;5100984;28;20032;-64
2021/09/06 06:03:52;;;;;;;4.32;2.28;;;;;;;9.76;70.44;100333.75;5100542;28;20059;-64
2021/09/06 06:06:38;;;;;;;6.72;2.70;;;;;;;9.78;70.61;100334.59;5100524;28;20325;-64
2021/09/06 06:09:24;;;;;;;4.32;2.45;;;;;;;9.87;68.45;100338.84;5094746;28;20028;-63
2021/09/06 06:12:10;;;;;;;5.95;2.70;;;;;;;9.93;69.48;100333.63;5095215;28;20202;-63
2021/09/06 06:14:57;;;;;;;4.32;2.75;;;;;;;9.98;68.84;100342.19;5094049;28;20033;-63
2021/09/06 06:17:43;;;;;;;5.22;2.40;;;;;;;10.02;68.88;100343.88;5102325;28;20263;-63
2021/09/06 06:20:29;;;;;;;5.95;2.67;;;;;;;10.06;67.22;100342.16;5082780;28;20025;-63
2021/09/06 06:23:15;;;;;;;7.32;2.55;;;;;;;10.08;66.42;100350.75;5085231;28;20035;-64
2021/09/06 06:26:01;;;;;;;8.75;3.00;;;;;;;10.14;68.68;100336.88;5083868;28;20027;-63
2021/09/06 06:28:46;;;;;;;4.13;2.20;;;;;;;10.20;65.99;100336.81;5084392;28;20055;-62
2021/09/06 06:31:32;;;;;;;4.82;2.47;;;;;;;10.16;65.35;100328.25;5084393;28;20043;-63
2021/09/06 06:34:18;;;;;;;3.65;2.20;;;;;;;10.34;66.17;100332.41;5101599;28;20224;-65
2021/09/06 06:37:04;;;;;;;3.25;2.28;;;;;;;10.41;65.10;100335.78;5101265;28;20040;-68
2021/09/06 06:39:50;;;;;;;5.18;2.13;;;;;;;10.53;64.85;100332.22;5101726;28;20038;-68
2021/09/06 06:42:36;;;;;;;5.13;2.60;;;;;;;10.41;64.17;100322.84;5099932;28;20270;-68
2021/09/06 06:45:22;;;;;;;4.70;2.10;;;;;;;10.62;65.67;100345.06;5086158;28;20031;-68
2021/09/06 06:48:08;;;;;;;6.18;2.20;;;;;;;10.73;64.12;100333.72;5100596;28;20106;-68
2021/09/06 06:50:54;;;;;;;4.93;2.40;;;;;;;10.81;61.61;100326.72;5101944;28;20026;-68
2021/09/06 06:53:40;;;;;;;4.45;2.28;;;;;;;10.89;63.16;100337.88;5088816;28;20095;-67
2021/09/06 06:56:26;;;;;;;4.97;2.10;;;;;;;10.98;61.83;100336.88;5100269;28;20059;-69
2021/09/06 06:59:12;;;;;;;2.35;1.80;;;;;;;10.91;59.96;100322.28;5098417;28;20032;-67
2021/09/06 07:01:57;;;;;;;3.35;2.03;;;;;;;11.13;59.52;100336.69;5099485;28;20031;-67
2021/09/06 07:04:43;;;;;;;5.93;1.95;;;;;;;11.32;60.69;100336.44;5098840;28;20093;-68
2021/09/06 07:07:29;;;;;;;3.88;2.35;;;;;;;11.39;60.65;100310.38;5098402;28;20046;-68
2021/09/06 07:10:15;;;;;;;2.85;2.13;;;;;;;11.43;58.60;100305.16;5100601;28;20032;-68
2021/09/06 07:13:01;;;;;;;5.15;1.70;;;;;;;11.51;58.34;100331.84;5099513;28;20020;-67
2021/09/06 07:15:47;;;;;;;5.20;1.67;;;;;;;11.92;54.95;100335.53;5099543;28;20339;-67
2021/09/06 07:18:32;;;;;;;3.08;1.70;;;;;;;11.98;53.56;100321.63;5099817;28;20081;-67
2021/09/06 07:21:18;;;;;;;7.38;1.80;;;;;;;12.22;54.85;100328.13;5098567;28;20066;-68
2021/09/06 07:24:04;;;;;;;3.58;1.70;;;;;;;12.16;55.69;100344.69;5099167;28;20075;-67
2021/09/06 07:26:50;;;;;;;3.88;2.00;;;;;;;12.09;52.45;100325.75;5098772;28;20048;-68
2021/09/06 07:29:36;;;;;;;6.93;1.90;;;;;;;11.81;51.19;100329.66;5098057;28;20473;-65
2021/09/06 07:32:22;;;;;;;3.72;1.92;;;;;;;11.84;53.26;100329.59;5084756;28;20043;-66
2021/09/06 07:35:08;;;;;;;8.32;2.00;;;;;;;11.95;55.30;100332.06;5098472;28;20064;-65
2021/09/06 07:37:54;;;;;;;4.90;2.22;;;;;;;11.86;53.17;100333.88;5099845;28;20032;-65
2021/09/06 07:40:40;;;;;;;5.68;2.05;;;;;;;11.70;51.77;100332.41;5091039;28;20074;-66
2021/09/06 07:43:26;;;;;;;2.35;1.48;;;;;;;11.72;53.58;100334.09;5100881;28;20654;-66
2021/09/06 07:46:13;;;;;;;3.40;1.77;;;;;;;11.69;56.22;100333.31;5100477;28;20016;-66
2021/09/06 07:48:59;;;;;;;5.05;1.98;;;;;;;11.77;54.82;100339.22;5101785;28;20027;-67
2021/09/06 07:51:51;;;;;;;5.30;2.00;;;;;;;11.63;52.86;100333.38;5092850;28;20024;-66
2021/09/06 07:54:37;;;;;;;6.30;2.10;;;;;;;11.64;55.38;100337.69;5099556;28;20095;-68
2021/09/06 07:57:23;;;;;;;3.92;2.05;;;;;;;11.71;55.53;100341.91;5082999;28;20054;-68
2021/09/06 08:00:09;;;;;;;1.90;1.60;;;;;;;11.60;55.90;100338.63;5084192;28;20258;-68
2021/09/06 08:02:55;;;;;;;6.20;2.20;;;;;;;11.57;57.06;100344.72;5095605;28;20039;-68
2021/09/06 08:05:41;;;;;;;5.40;1.98;;;;;;;11.74;55.42;100347.06;5101255;28;20031;-68
2021/09/06 08:08:27;;;;;;;3.72;2.05;;;;;;;11.76;56.04;100337.53;5085050;28;20027;-67
2021/09/06 08:11:13;;;;;;;5.50;2.20;;;;;;;11.71;56.41;100335.00;5091362;28;20024;-66
2021/09/06 08:13:59;;;;;;;7.97;2.00;;;;;;;11.92;55.61;100341.56;5081174;28;20325;-67
2021/09/06 08:16:45;;;;;;;7.35;2.15;;;;;;;11.89;55.12;100335.59;5099614;28;20058;-66
2021/09/06 08:19:31;;;;;;;6.47;1.98;;;;;;;12.01;55.20;100347.53;5097523;28;20077;-67
2021/09/06 08:22:17;;;;;;;4.60;2.08;;;;;;;12.01;53.49;100344.94;5100580;28;20038;-67
2021/09/06 08:25:05;;;;;;;2.95;2.05;;;;;;;11.73;54.33;100288.28;5085027;28;20031;-67
2021/09/06 08:27:51;;;;;;;2.70;2.00;;;;;;;12.07;54.79;100330.13;5101153;28;20031;-67
2021/09/06 08:30:37;;;;;;;6.57;2.17;;;;;;;12.12;54.81;100348.22;5099232;28;20024;-67
2021/09/06 08:33:23;;;;;;;4.40;1.92;;;;;;;11.98;53.25;100293.06;5097241;28;20028;-67
2021/09/06 08:36:11;;;;;;;8.68;2.13;;;;;;;12.14;52.09;100341.25;5099081;28;20384;-68
2021/09/06 08:38:57;;;;;;;4.50;1.90;;;;;;;12.44;51.56;100338.97;5096687;28;20051;-69
2021/09/06 08:41:43;;;;;;;2.97;2.08;;;;;;;12.60;52.03;100318.78;5108692;28;20024;-68
2021/09/06 08:44:29;;;;;;;4.43;2.25;;;;;;;12.74;49.75;100331.47;5121131;28;20016;-68
2021/09/06 08:47:15;;;;;;;5.55;1.70;;;;;;;12.58;49.92;100344.78;5120191;28;20038;-67
2021/09/06 08:50:03;;;;;;;3.53;1.75;;;;;;;12.64;52.15;100335.16;5120924;28;20028;-67
2021/09/06 08:52:49;;;;;;;5.75;1.95;;;;;;;12.80;54.84;100330.50;5119625;28;20028;-67
2021/09/06 08:55:37;;;;;;;3.28;2.00;;;;;;;13.18;52.24;100331.44;5119317;28;20039;-66
2021/09/06 08:58:23;;;;;;;10.68;2.20;;;;;;;13.20;52.21;100322.72;5118555;28;20027;-66
2021/09/06 09:01:09;;;;;;;5.10;2.55;;;;;;;12.98;49.88;100313.69;5113197;28;20320;-66
2021/09/06 09:03:54;;;;;;;2.42;1.88;;;;;;;13.17;51.00;100335.81;5120434;28;20050;-67
2021/09/06 09:06:40;;;;;;;2.92;2.13;;;;;;;13.68;51.16;100333.81;5121118;28;20464;-66
2021/09/06 09:09:31;;;;;;;5.55;1.90;;;;;;;13.36;45.30;100284.25;5120148;28;20020;-66
2021/09/06 09:12:20;;;;;;;4.28;1.88;;;;;;;13.97;47.01;100328.75;5119023;28;20024;-66
2021/09/06 09:15:08;;;;;;;1.88;1.35;;;;;;;13.83;48.65;100286.59;5116165;28;20223;-66
2021/09/06 09:17:54;;;;;;;2.35;1.48;;;;;;;14.20;45.37;100324.72;5119984;28;20118;-67
2021/09/06 09:20:42;;;;;;;3.97;1.65;;;;;;;14.48;45.67;100318.78;5119056;28;20036;-67
2021/09/06 09:23:53;;;;;;;2.58;1.67;;;;;;;14.65;45.99;100321.81;5118832;28;20053;-66
2021/09/06 09:26:39;;;;;;;3.38;1.88;;;;;;;14.37;44.21;100336.47;5119687;28;20087;-66
2021/09/06 09:29:26;;;;;;;2.40;1.80;;;;;;;14.09;45.66;100327.59;5120244;28;20031;-67
2021/09/06 09:32:12;;;;;;;3.50;2.22;;;;;;;13.96;47.91;100339.22;5120877;28;20250;-67
2021/09/06 09:35:03;;;;;;;4.57;2.00;;;;;;;13.49;48.85;100289.16;5117988;28;20195;-67
2021/09/06 09:38:00;;;;;;;2.95;2.00;;;;;;;13.25;46.84;100289.69;5118386;28;20036;-66
2021/09/06 09:40:46;;;;;;;4.85;2.03;;;;;;;13.14;47.49;100343.69;5117807;28;20107;-67
2021/09/06 09:43:32;;;;;;;2.45;1.88;;;;;;;13.12;49.51;100335.91;5119411;28;20342;-67
2021/09/06 09:46:19;;;;;;;2.58;1.83;;;;;;;13.24;50.62;100339.97;5120311;28;20021;-67
2021/09/06 09:49:13;;;;;;;5.25;1.58;;;;;;;12.98;49.35;100287.69;5121097;28;20082;-64
2021/09/06 09:51:59;;;;;;;4.95;2.00;;;;;;;13.22;48.04;100344.34;5123172;28;20056;-67
2021/09/06 09:54:47;;;;;;;2.15;1.70;;;;;;;13.00;48.21;100286.75;5122238;28;20304;-65
2021/09/06 09:57:34;;;;;;;2.30;1.42;;;;;;;13.33;47.87;100325.91;5117250;28;20131;-65
2021/09/06 10:00:20;;;;;;;3.28;1.50;;;;;;;13.42;47.96;100330.09;5121472;28;20054;-67
2021/09/06 10:03:06;;;;;;;3.65;2.05;;;;;;;13.18;45.51;100336.66;5123125;28;20055;-66
2021/09/06 10:05:54;;;;;;;5.07;1.45;;;;;;;12.75;44.63;100289.00;5122284;28;20016;-67
2021/09/06 10:08:40;;;;;;;3.40;1.65;;;;;;;13.27;45.32;100329.50;5124019;28;20028;-69
2021/09/06 10:11:41;;;;;;;4.22;1.80;;;;;;;13.05;47.73;100278.84;5122415;28;20027;-65
2021/09/06 10:14:27;;;;;;;2.70;1.60;;;;;;;13.60;48.73;100324.44;5123002;28;20023;-68
2021/09/06 10:17:13;;;;;;;2.58;1.55;;;;;;;13.69;48.05;100309.50;5105005;28;20054;-67
2021/09/06 10:19:59;;;;;;;1.95;1.50;;;;;;;13.69;46.39;100322.53;5108713;28;20032;-68
2021/09/06 10:22:46;;;;;;;2.72;2.00;;;;;;;13.55;48.32;100321.13;5122179;28;20224;-67
2021/09/06 10:25:35;;;;;;;2.00;1.60;;;;;;;13.41;47.89;100312.75;5120841;28;20036;-66
2021/09/06 10:28:31;;;;;;;2.35;1.70;;;;;;;13.54;50.32;100339.34;5122614;28;20038;-67
2021/09/06 10:31:22;;;;;;;4.75;2.03;;;;;;;13.42;48.61;100335.28;5122141;28;20059;-66
2021/09/06 10:34:08;;;;;;;3.55;2.08;;;;;;;13.53;48.50;100328.09;5117017;28;20031;-68
2021/09/06 10:36:56;;;;;;;3.58;2.03;;;;;;;13.46;49.66;100332.56;5114459;28;20024;-67
2021/09/06 10:39:46;;;;;;;4.38;2.20;;;;;;;13.43;50.01;100326.59;5107889;28;20445;-67
2021/09/06 10:42:35;;;;;;;3.10;1.95;;;;;;;13.06;51.24;100285.78;5092299;28;20031;-68
2021/09/06 10:45:22;;;;;;;4.00;1.98;;;;;;;13.20;47.67;100312.31;5094501;28;20336;-65
2021/09/06 10:48:08;;;;;;;4.38;1.85;;;;;;;13.36;48.11;100319.81;5094248;28;20070;-67
2021/09/06 10:50:55;;;;;;;3.30;1.83;;;;;;;13.45;47.14;100317.00;5094414;28;20032;-67
2021/09/06 10:53:41;;;;;;;4.95;2.00;;;;;;;13.50;48.99;100309.94;5095477;28;20396;-67
2021/09/06 10:56:29;;;;;;;3.22;1.63;;;;;;;13.52;47.51;100323.78;5103061;28;20134;-67
2021/09/06 10:59:22;;;;;;;2.67;1.63;;;;;;;13.24;45.92;100263.69;5085005;28;20114;-66
2021/09/06 11:02:08;;;;;;;2.50;1.80;;;;;;;13.60;47.85;100308.84;5102497;28;20078;-66
2021/09/06 11:04:54;;;;;;;2.13;1.55;;;;;;;13.71;50.08;100310.31;5099150;28;20290;-66
2021/09/06 11:07:40;;;;;;;4.07;1.90;;;;;;;13.75;45.67;100299.81;5101342;28;20034;-66
2021/09/06 11:10:25;;;;;;;3.20;2.33;;;;;;;13.84;47.14;100305.66;5101921;28;20035;-66
2021/09/06 11:13:11;;;;;;;4.50;1.70;;;;;;;13.81;48.07;100301.41;5101834;28;20495;-66
2021/09/06 11:15:57;;;;;;;2.33;1.52;;;;;;;13.75;46.12;100298.94;5100799;28;20145;-66
2021/09/06 11:18:50;;;;;;;2.30;1.75;;;;;;;13.69;48.39;100312.13;5102303;28;20030;-68
2021/09/06 11:21:36;;;;;;;4.93;1.90;;;;;;;13.72;48.63;100296.41;5092523;28;20067;-67
2021/09/06 11:24:22;;;;;;;3.95;2.05;;;;;;;13.72;47.09;100301.63;5085831;28;20260;-67
2021/09/06 11:27:19;;;;;;;7.18;2.10;;;;;;;13.75;48.96;100296.34;5084117;28;20024;-66
2021/09/06 11:30:07;;;;;;;4.03;1.80;;;;;;;13.76;48.33;100288.47;5097814;28;20525;-67
2021/09/06 11:32:53;;;;;;;1.90;1.70;;;;;;;13.85;46.96;100292.59;5099535;28;20103;-67
2021/09/06 11:35:45;;;;;;;7.03;1.63;;;;;;;13.90;45.27;100285.53;5099483;28;20336;-66
2021/09/06 11:38:30;;;;;;;3.40;1.60;;;;;;;13.91;46.81;100287.25;5099139;28;20032;-67
2021/09/06 11:41:17;;;;;;;2.13;1.52;;;;;;;13.96;46.01;100280.16;5100842;28;20055;-66
2021/09/06 11:44:05;;;;;;;4.82;1.63;;;;;;;13.64;46.78;100235.00;5101445;28;20059;-66
2021/09/06 11:46:51;;;;;;;5.47;1.98;;;;;;;13.81;44.66;100265.81;5099847;28;20024;-66
2021/09/06 11:49:37;;;;;;;7.97;1.63;;;;;;;13.91;45.45;100274.25;5102223;28;20231;-66
2021/09/06 11:52:32;;;;;;;3.55;1.63;;;;;;;13.68;46.25;100259.22;5101197;28;20044;-67
2021/09/06 11:55:20;;;;;;;3.00;1.60;;;;;;;13.55;47.30;100231.75;5099460;28;20302;-67
2021/09/06 11:58:11;;;;;;;7.88;1.85;;;;;;;13.71;45.70;100277.34;5087071;28;20095;-67
2021/09/06 12:01:04;;;;;;;2.83;1.52;;;;;;;13.72;46.58;100278.19;5100802;28;20032;-67
2021/09/06 12:03:50;;;;;;;4.90;2.17;;;;;;;13.61;49.22;100279.31;5098866;28;20032;-66
2021/09/06 12:06:38;;;;;;;2.35;1.63;;;;;;;13.63;47.50;100279.28;5085965;28;20040;-67
2021/09/06 12:09:24;;;;;;;2.35;1.88;;;;;;;13.68;48.52;100282.63;5100627;28;20062;-67
2021/09/06 12:12:23;;;;;;;6.80;2.38;;;;;;;13.50;48.49;100234.50;5087115;28;20529;-67
2021/09/06 12:15:09;;;;;;;6.50;2.53;;;;;;;13.75;46.00;100280.72;5096207;28;20036;-66
2021/09/06 12:18:36;;;;;;;5.93;3.10;;;;;;;13.80;46.34;100271.06;5091708;28;20031;-66
2021/09/06 12:21:24;;;;;;;3.22;1.50;;;;;;;13.71;47.13;100277.34;5086751;28;20244;-68
2021/09/06 12:24:10;;;;;;;2.75;1.70;;;;;;;13.66;45.96;100270.53;5098103;28;20213;-67
2021/09/06 12:26:55;;;;;;;1.95;1.55;;;;;;;13.74;46.51;100285.09;5100919;28;20074;-68
2021/09/06 12:29:44;;;;;;;3.58;1.83;;;;;;;13.68;45.52;100271.34;5100700;28;20024;-66
2021/09/06 12:32:29;;;;;;;3.45;1.50;;;;;;;13.57;44.93;100276.84;5099297;28;20020;-66
2021/09/06 12:35:15;;;;;;;7.78;1.92;;;;;;;13.58;45.27;100269.00;5099637;28;20028;-66
2021/09/06 12:38:04;;;;;;;4.03;1.65;;;;;;;13.44;47.06;100224.25;5099726;28;20332;-68
2021/09/06 12:40:50;;;;;;;2.72;1.88;;;;;;;13.71;45.71;100264.34;5114115;28;20040;-65
2021/09/06 12:43:36;;;;;;;3.30;1.70;;;;;;;13.72;45.33;100249.56;5120407;28;20035;-66
2021/09/06 12:46:22;;;;;;;3.20;1.70;;;;;;;13.72;45.66;100255.63;5119975;28;20343;-66
2021/09/06 12:49:08;;;;;;;3.03;1.85;;;;;;;13.79;47.02;100257.16;5119258;28;20104;-67
2021/09/06 12:51:56;;;;;;;2.80;1.60;;;;;;;13.79;45.43;100246.75;5116615;28;20227;-66
2021/09/06 12:54:44;;;;;;;2.47;1.38;;;;;;;13.85;45.25;100250.94;5110172;28;20028;-65
2021/09/06 12:57:29;;;;;;;1.77;1.10;;;;;;;13.90;45.38;100245.63;5102596;28;20036;-66
2021/09/06 13:00:15;;;;;;;2.28;1.40;;;;;;;13.91;44.10;100247.31;5104501;28;20039;-67